sensor_id;sensor_type;location;lat;lon;timestamp;P1;durP1;ratioP1;P2;durP2;ratioP2
21122;SDS011;10719;48.130;11.630;2023-06-10T00:02:14;9.13;;;4.13;;
21122;SDS011;10719;48.130;11.630;2023-06-10T00:04:41;11.82;;;4.18;;
21122;SDS011;10719;48.130;11.630;2023-06-10T00:07:07;9.63;;;4.30;;
21122;SDS011;10719;48.130;11.630;2023-06-10T00:09:34;11.77;;;4.30;;
21122;SDS011;10719;48.130;11.630;2023-06-10T00:12:06;10.68;;;3.78;;
21122;SDS011;10719;48.130;11.630;2023-06-10T00:14:37;10.75;;;4.10;;
21122;SDS011;10719;48.130;11.630;2023-06-10T00:17:04;8.35;;;3.63;;
21122;SDS011;10719;48.130;11.630;2023-06-10T00:19:34;9.98;;;4.20;;
21122;SDS011;10719;48.130;11.630;2023-06-10T00:22:01;9.00;;;3.95;;
21122;SDS011;10719;48.130;11.630;2023-06-10T00:24:28;9.40;;;3.95;;
21122;SDS011;10719;48.130;11.630;2023-06-10T00:26:54;8.63;;;4.03;;
21122;SDS011;10719;48.130;11.630;2023-06-10T00:29:19;9.70;;;4.45;;
21122;SDS011;10719;48.130;11.630;2023-06-10T00:31:45;9.30;;;3.63;;
21122;SDS011;10719;48.130;11.630;2023-06-10T00:34:12;8.25;;;3.55;;
21122;SDS011;10719;48.130;11.630;2023-06-10T00:36:37;9.07;;;3.78;;
21122;SDS011;10719;48.130;11.630;2023-06-10T00:39:03;9.48;;;4.07;;
21122;SDS011;10719;48.130;11.630;2023-06-10T00:41:32;11.20;;;3.80;;
21122;SDS011;10719;48.130;11.630;2023-06-10T00:43:59;8.73;;;3.88;;
21122;SDS011;10719;48.130;11.630;2023-06-10T00:46:24;9.45;;;4.00;;
21122;SDS011;10719;48.130;11.630;2023-06-10T00:48:51;10.77;;;3.63;;
21122;SDS011;10719;48.130;11.630;2023-06-10T00:51:17;8.95;;;3.55;;
21122;SDS011;10719;48.130;11.630;2023-06-10T00:53:44;9.18;;;3.72;;
21122;SDS011;10719;48.130;11.630;2023-06-10T00:56:10;8.65;;;3.28;;
21122;SDS011;10719;48.130;11.630;2023-06-10T00:58:36;10.68;;;4.30;;
21122;SDS011;10719;48.130;11.630;2023-06-10T01:01:02;8.25;;;3.90;;
21122;SDS011;10719;48.130;11.630;2023-06-10T01:03:29;11.45;;;4.63;;
21122;SDS011;10719;48.130;11.630;2023-06-10T01:05:59;9.63;;;4.13;;
21122;SDS011;10719;48.130;11.630;2023-06-10T01:08:33;8.73;;;3.90;;
21122;SDS011;10719;48.130;11.630;2023-06-10T01:11:07;7.80;;;3.90;;
21122;SDS011;10719;48.130;11.630;2023-06-10T01:13:38;10.05;;;3.88;;
21122;SDS011;10719;48.130;11.630;2023-06-10T01:16:06;8.63;;;3.80;;
21122;SDS011;10719;48.130;11.630;2023-06-10T01:18:33;8.57;;;3.67;;
21122;SDS011;10719;48.130;11.630;2023-06-10T01:20:58;10.75;;;4.55;;
21122;SDS011;10719;48.130;11.630;2023-06-10T01:23:24;10.05;;;4.28;;
21122;SDS011;10719;48.130;11.630;2023-06-10T01:26:00;11.68;;;4.18;;
21122;SDS011;10719;48.130;11.630;2023-06-10T01:34:06;8.20;;;3.78;;
21122;SDS011;10719;48.130;11.630;2023-06-10T01:36:35;10.63;;;4.90;;
21122;SDS011;10719;48.130;11.630;2023-06-10T01:39:02;10.68;;;4.72;;
21122;SDS011;10719;48.130;11.630;2023-06-10T01:41:29;10.85;;;4.55;;
21122;SDS011;10719;48.130;11.630;2023-06-10T01:43:55;11.43;;;4.93;;
21122;SDS011;10719;48.130;11.630;2023-06-10T01:46:21;10.48;;;4.53;;
21122;SDS011;10719;48.130;11.630;2023-06-10T01:48:47;11.25;;;4.57;;
21122;SDS011;10719;48.130;11.630;2023-06-10T01:51:13;8.27;;;4.05;;
21122;SDS011;10719;48.130;11.630;2023-06-10T01:53:39;9.63;;;3.90;;
21122;SDS011;10719;48.130;11.630;2023-06-10T01:56:05;10.40;;;4.63;;
21122;SDS011;10719;48.130;11.630;2023-06-10T01:58:30;9.13;;;3.95;;
21122;SDS011;10719;48.130;11.630;2023-06-10T02:00:56;9.90;;;4.32;;
21122;SDS011;10719;48.130;11.630;2023-06-10T02:03:21;12.05;;;4.57;;
21122;SDS011;10719;48.130;11.630;2023-06-10T02:05:47;12.60;;;4.18;;
21122;SDS011;10719;48.130;11.630;2023-06-10T02:08:12;11.93;;;5.20;;
21122;SDS011;10719;48.130;11.630;2023-06-10T02:10:38;15.38;;;4.97;;
21122;SDS011;10719;48.130;11.630;2023-06-10T02:13:04;10.10;;;4.43;;
21122;SDS011;10719;48.130;11.630;2023-06-10T02:15:30;9.50;;;4.40;;
21122;SDS011;10719;48.130;11.630;2023-06-10T02:17:55;11.80;;;4.43;;
21122;SDS011;10719;48.130;11.630;2023-06-10T02:20:21;10.07;;;4.50;;
21122;SDS011;10719;48.130;11.630;2023-06-10T02:22:47;10.50;;;4.38;;
21122;SDS011;10719;48.130;11.630;2023-06-10T02:25:12;11.45;;;4.38;;
21122;SDS011;10719;48.130;11.630;2023-06-10T02:27:38;9.45;;;4.22;;
21122;SDS011;10719;48.130;11.630;2023-06-10T02:30:04;13.30;;;5.22;;
21122;SDS011;10719;48.130;11.630;2023-06-10T02:32:30;12.85;;;5.15;;
21122;SDS011;10719;48.130;11.630;2023-06-10T02:34:55;9.50;;;4.93;;
21122;SDS011;10719;48.130;11.630;2023-06-10T02:37:21;11.07;;;5.32;;
21122;SDS011;10719;48.130;11.630;2023-06-10T02:39:46;11.50;;;5.03;;
21122;SDS011;10719;48.130;11.630;2023-06-10T02:42:12;13.02;;;5.18;;
21122;SDS011;10719;48.130;11.630;2023-06-10T02:44:38;13.20;;;6.13;;
21122;SDS011;10719;48.130;11.630;2023-06-10T02:47:04;12.45;;;5.30;;
21122;SDS011;10719;48.130;11.630;2023-06-10T02:49:30;14.02;;;5.00;;
21122;SDS011;10719;48.130;11.630;2023-06-10T02:51:55;12.00;;;5.28;;
21122;SDS011;10719;48.130;11.630;2023-06-10T02:54:24;12.98;;;5.82;;
21122;SDS011;10719;48.130;11.630;2023-06-10T02:56:51;13.63;;;5.47;;
21122;SDS011;10719;48.130;11.630;2023-06-10T02:59:17;12.65;;;5.60;;
21122;SDS011;10719;48.130;11.630;2023-06-10T03:01:43;14.68;;;5.57;;
21122;SDS011;10719;48.130;11.630;2023-06-10T03:04:08;12.38;;;5.55;;
21122;SDS011;10719;48.130;11.630;2023-06-10T03:06:34;11.80;;;5.43;;
21122;SDS011;10719;48.130;11.630;2023-06-10T03:09:01;13.85;;;5.50;;
21122;SDS011;10719;48.130;11.630;2023-06-10T03:11:29;14.02;;;5.68;;
21122;SDS011;10719;48.130;11.630;2023-06-10T03:13:54;11.20;;;4.95;;
21122;SDS011;10719;48.130;11.630;2023-06-10T03:16:21;10.48;;;4.63;;
21122;SDS011;10719;48.130;11.630;2023-06-10T03:18:46;15.45;;;5.57;;
21122;SDS011;10719;48.130;11.630;2023-06-10T03:21:12;10.85;;;4.97;;
21122;SDS011;10719;48.130;11.630;2023-06-10T03:23:38;12.05;;;5.50;;
21122;SDS011;10719;48.130;11.630;2023-06-10T03:26:04;12.50;;;5.47;;
21122;SDS011;10719;48.130;11.630;2023-06-10T03:28:32;11.50;;;4.82;;
21122;SDS011;10719;48.130;11.630;2023-06-10T03:30:58;16.88;;;5.00;;
21122;SDS011;10719;48.130;11.630;2023-06-10T03:33:23;13.32;;;5.53;;
21122;SDS011;10719;48.130;11.630;2023-06-10T03:35:50;12.73;;;5.43;;
21122;SDS011;10719;48.130;11.630;2023-06-10T03:38:16;12.70;;;4.93;;
21122;SDS011;10719;48.130;11.630;2023-06-10T03:40:41;12.02;;;5.10;;
21122;SDS011;10719;48.130;11.630;2023-06-10T03:43:07;12.45;;;5.50;;
21122;SDS011;10719;48.130;11.630;2023-06-10T03:45:32;16.90;;;5.32;;
21122;SDS011;10719;48.130;11.630;2023-06-10T03:47:58;12.35;;;5.90;;
21122;SDS011;10719;48.130;11.630;2023-06-10T03:50:24;13.23;;;5.35;;
21122;SDS011;10719;48.130;11.630;2023-06-10T03:52:50;14.55;;;7.32;;
21122;SDS011;10719;48.130;11.630;2023-06-10T03:55:16;12.70;;;5.93;;
21122;SDS011;10719;48.130;11.630;2023-06-10T03:57:42;16.17;;;5.88;;
21122;SDS011;10719;48.130;11.630;2023-06-10T04:00:08;12.75;;;6.05;;
21122;SDS011;10719;48.130;11.630;2023-06-10T04:02:37;12.57;;;5.70;;
21122;SDS011;10719;48.130;11.630;2023-06-10T04:05:10;14.02;;;5.20;;
21122;SDS011;10719;48.130;11.630;2023-06-10T04:07:39;12.48;;;5.50;;
21122;SDS011;10719;48.130;11.630;2023-06-10T04:10:09;13.52;;;6.30;;
21122;SDS011;10719;48.130;11.630;2023-06-10T04:12:36;12.05;;;5.40;;
21122;SDS011;10719;48.130;11.630;2023-06-10T04:15:02;12.52;;;5.25;;
21122;SDS011;10719;48.130;11.630;2023-06-10T04:17:28;13.98;;;6.00;;
21122;SDS011;10719;48.130;11.630;2023-06-10T04:19:54;12.13;;;5.03;;
21122;SDS011;10719;48.130;11.630;2023-06-10T04:22:20;12.73;;;5.32;;
21122;SDS011;10719;48.130;11.630;2023-06-10T04:24:46;13.80;;;6.53;;
21122;SDS011;10719;48.130;11.630;2023-06-10T04:27:12;14.50;;;6.28;;
21122;SDS011;10719;48.130;11.630;2023-06-10T04:29:37;12.35;;;5.55;;
21122;SDS011;10719;48.130;11.630;2023-06-10T04:32:03;13.07;;;5.50;;
21122;SDS011;10719;48.130;11.630;2023-06-10T04:34:31;16.02;;;6.18;;
21122;SDS011;10719;48.130;11.630;2023-06-10T04:36:57;14.80;;;6.88;;
21122;SDS011;10719;48.130;11.630;2023-06-10T04:39:23;15.23;;;7.00;;
21122;SDS011;10719;48.130;11.630;2023-06-10T04:41:49;13.85;;;5.40;;
21122;SDS011;10719;48.130;11.630;2023-06-10T04:44:14;15.63;;;5.80;;
21122;SDS011;10719;48.130;11.630;2023-06-10T04:46:40;13.73;;;6.07;;
21122;SDS011;10719;48.130;11.630;2023-06-10T04:49:05;15.70;;;7.05;;
21122;SDS011;10719;48.130;11.630;2023-06-10T04:51:31;14.45;;;6.40;;
21122;SDS011;10719;48.130;11.630;2023-06-10T04:53:57;13.95;;;6.47;;
21122;SDS011;10719;48.130;11.630;2023-06-10T04:56:23;13.40;;;6.07;;
21122;SDS011;10719;48.130;11.630;2023-06-10T04:58:50;14.55;;;5.65;;
21122;SDS011;10719;48.130;11.630;2023-06-10T05:01:15;13.38;;;5.97;;
21122;SDS011;10719;48.130;11.630;2023-06-10T05:03:41;16.00;;;6.70;;
21122;SDS011;10719;48.130;11.630;2023-06-10T05:06:06;14.38;;;6.30;;
21122;SDS011;10719;48.130;11.630;2023-06-10T05:08:32;13.40;;;6.13;;
21122;SDS011;10719;48.130;11.630;2023-06-10T05:10:58;11.52;;;5.93;;
21122;SDS011;10719;48.130;11.630;2023-06-10T05:13:24;15.38;;;7.05;;
21122;SDS011;10719;48.130;11.630;2023-06-10T05:15:49;12.23;;;5.95;;
21122;SDS011;10719;48.130;11.630;2023-06-10T05:18:15;14.82;;;6.75;;
21122;SDS011;10719;48.130;11.630;2023-06-10T05:20:41;16.88;;;6.35;;
21122;SDS011;10719;48.130;11.630;2023-06-10T05:23:06;13.48;;;6.18;;
21122;SDS011;10719;48.130;11.630;2023-06-10T05:25:32;17.90;;;6.38;;
21122;SDS011;10719;48.130;11.630;2023-06-10T05:27:58;13.48;;;5.72;;
21122;SDS011;10719;48.130;11.630;2023-06-10T05:30:24;14.38;;;6.95;;
21122;SDS011;10719;48.130;11.630;2023-06-10T05:32:50;13.85;;;5.70;;
21122;SDS011;10719;48.130;11.630;2023-06-10T05:35:17;12.60;;;5.57;;
21122;SDS011;10719;48.130;11.630;2023-06-10T05:37:43;15.68;;;6.70;;
21122;SDS011;10719;48.130;11.630;2023-06-10T05:40:09;16.05;;;6.43;;
21122;SDS011;10719;48.130;11.630;2023-06-10T05:42:35;15.40;;;6.97;;
21122;SDS011;10719;48.130;11.630;2023-06-10T05:45:01;15.15;;;6.85;;
21122;SDS011;10719;48.130;11.630;2023-06-10T05:47:27;17.55;;;7.20;;
21122;SDS011;10719;48.130;11.630;2023-06-10T05:49:53;16.27;;;6.38;;
21122;SDS011;10719;48.130;11.630;2023-06-10T05:52:19;13.40;;;5.82;;
21122;SDS011;10719;48.130;11.630;2023-06-10T05:54:44;15.83;;;7.30;;
21122;SDS011;10719;48.130;11.630;2023-06-10T05:57:10;12.77;;;5.63;;
21122;SDS011;10719;48.130;11.630;2023-06-10T05:59:36;14.00;;;6.65;;
21122;SDS011;10719;48.130;11.630;2023-06-10T06:02:02;13.52;;;6.00;;
21122;SDS011;10719;48.130;11.630;2023-06-10T06:04:28;12.55;;;5.47;;
21122;SDS011;10719;48.130;11.630;2023-06-10T06:06:54;13.50;;;6.97;;
21122;SDS011;10719;48.130;11.630;2023-06-10T06:09:19;15.52;;;6.28;;
21122;SDS011;10719;48.130;11.630;2023-06-10T06:11:45;16.15;;;6.57;;
21122;SDS011;10719;48.130;11.630;2023-06-10T06:14:11;15.15;;;6.03;;
21122;SDS011;10719;48.130;11.630;2023-06-10T06:16:36;12.75;;;5.90;;
21122;SDS011;10719;48.130;11.630;2023-06-10T06:19:02;15.68;;;6.10;;
21122;SDS011;10719;48.130;11.630;2023-06-10T06:21:27;13.82;;;6.53;;
21122;SDS011;10719;48.130;11.630;2023-06-10T06:23:53;15.15;;;5.68;;
21122;SDS011;10719;48.130;11.630;2023-06-10T06:26:18;12.57;;;5.90;;
21122;SDS011;10719;48.130;11.630;2023-06-10T06:28:44;15.25;;;5.65;;
21122;SDS011;10719;48.130;11.630;2023-06-10T06:31:10;13.52;;;5.68;;
21122;SDS011;10719;48.130;11.630;2023-06-10T06:33:36;13.88;;;5.45;;
21122;SDS011;10719;48.130;11.630;2023-06-10T06:36:01;14.50;;;6.05;;
21122;SDS011;10719;48.130;11.630;2023-06-10T06:38:27;10.27;;;5.00;;
21122;SDS011;10719;48.130;11.630;2023-06-10T06:40:53;12.63;;;4.50;;
21122;SDS011;10719;48.130;11.630;2023-06-10T06:43:19;13.23;;;5.32;;
21122;SDS011;10719;48.130;11.630;2023-06-10T06:45:44;11.00;;;4.75;;
21122;SDS011;10719;48.130;11.630;2023-06-10T06:48:11;10.07;;;5.00;;
21122;SDS011;10719;48.130;11.630;2023-06-10T06:50:36;10.90;;;5.00;;
21122;SDS011;10719;48.130;11.630;2023-06-10T06:53:02;10.57;;;4.65;;
21122;SDS011;10719;48.130;11.630;2023-06-10T06:55:28;10.48;;;4.50;;
21122;SDS011;10719;48.130;11.630;2023-06-10T06:57:54;13.00;;;5.80;;
21122;SDS011;10719;48.130;11.630;2023-06-10T07:00:20;14.55;;;5.15;;
21122;SDS011;10719;48.130;11.630;2023-06-10T07:02:46;13.63;;;4.88;;
21122;SDS011;10719;48.130;11.630;2023-06-10T07:05:12;12.30;;;5.38;;
21122;SDS011;10719;48.130;11.630;2023-06-10T07:07:37;11.00;;;5.25;;
21122;SDS011;10719;48.130;11.630;2023-06-10T07:10:03;12.38;;;5.28;;
21122;SDS011;10719;48.130;11.630;2023-06-10T07:12:29;19.98;;;5.65;;
21122;SDS011;10719;48.130;11.630;2023-06-10T07:14:55;12.23;;;5.55;;
21122;SDS011;10719;48.130;11.630;2023-06-10T07:17:20;13.50;;;5.50;;
21122;SDS011;10719;48.130;11.630;2023-06-10T07:19:46;12.05;;;4.88;;
21122;SDS011;10719;48.130;11.630;2023-06-10T07:22:11;10.68;;;4.68;;
21122;SDS011;10719;48.130;11.630;2023-06-10T07:24:37;12.10;;;4.90;;
21122;SDS011;10719;48.130;11.630;2023-06-10T07:27:03;10.57;;;4.78;;
21122;SDS011;10719;48.130;11.630;2023-06-10T07:29:28;14.15;;;5.20;;
21122;SDS011;10719;48.130;11.630;2023-06-10T07:31:54;12.50;;;5.22;;
21122;SDS011;10719;48.130;11.630;2023-06-10T07:34:20;10.95;;;4.82;;
21122;SDS011;10719;48.130;11.630;2023-06-10T07:36:45;14.18;;;5.05;;
21122;SDS011;10719;48.130;11.630;2023-06-10T07:39:11;10.25;;;4.95;;
21122;SDS011;10719;48.130;11.630;2023-06-10T07:41:36;9.95;;;4.40;;
21122;SDS011;10719;48.130;11.630;2023-06-10T07:44:02;11.32;;;4.93;;
21122;SDS011;10719;48.130;11.630;2023-06-10T07:46:27;11.65;;;4.80;;
21122;SDS011;10719;48.130;11.630;2023-06-10T07:48:53;10.38;;;4.55;;
21122;SDS011;10719;48.130;11.630;2023-06-10T07:51:20;10.57;;;4.60;;
21122;SDS011;10719;48.130;11.630;2023-06-10T07:53:46;9.20;;;3.85;;
21122;SDS011;10719;48.130;11.630;2023-06-10T07:56:12;9.98;;;3.78;;
21122;SDS011;10719;48.130;11.630;2023-06-10T07:58:37;10.75;;;4.50;;
21122;SDS011;10719;48.130;11.630;2023-06-10T08:01:03;10.95;;;4.50;;
21122;SDS011;10719;48.130;11.630;2023-06-10T08:03:29;10.85;;;4.10;;
21122;SDS011;10719;48.130;11.630;2023-06-10T08:05:54;11.27;;;4.63;;
21122;SDS011;10719;48.130;11.630;2023-06-10T08:08:20;12.63;;;5.35;;
21122;SDS011;10719;48.130;11.630;2023-06-10T08:10:46;13.48;;;6.10;;
21122;SDS011;10719;48.130;11.630;2023-06-10T08:13:11;10.73;;;4.43;;
21122;SDS011;10719;48.130;11.630;2023-06-10T08:15:37;10.02;;;4.68;;
21122;SDS011;10719;48.130;11.630;2023-06-10T08:18:02;12.02;;;4.68;;
21122;SDS011;10719;48.130;11.630;2023-06-10T08:20:28;11.90;;;5.15;;
21122;SDS011;10719;48.130;11.630;2023-06-10T08:22:54;12.00;;;5.00;;
21122;SDS011;10719;48.130;11.630;2023-06-10T08:25:19;8.40;;;4.20;;
21122;SDS011;10719;48.130;11.630;2023-06-10T08:27:47;11.32;;;4.03;;
21122;SDS011;10719;48.130;11.630;2023-06-10T08:30:12;9.10;;;4.30;;
21122;SDS011;10719;48.130;11.630;2023-06-10T08:32:39;9.38;;;4.32;;
21122;SDS011;10719;48.130;11.630;2023-06-10T08:35:05;8.52;;;3.47;;
21122;SDS011;10719;48.130;11.630;2023-06-10T08:37:30;10.13;;;4.50;;
21122;SDS011;10719;48.130;11.630;2023-06-10T08:39:56;11.35;;;4.05;;
21122;SDS011;10719;48.130;11.630;2023-06-10T08:42:28;10.68;;;4.78;;
21122;SDS011;10719;48.130;11.630;2023-06-10T08:45:00;9.98;;;4.20;;
21122;SDS011;10719;48.130;11.630;2023-06-10T08:47:27;10.70;;;4.22;;
21122;SDS011;10719;48.130;11.630;2023-06-10T08:50:02;9.20;;;3.80;;
21122;SDS011;10719;48.130;11.630;2023-06-10T08:52:29;11.75;;;4.40;;
21122;SDS011;10719;48.130;11.630;2023-06-10T08:55:03;10.00;;;4.10;;
21122;SDS011;10719;48.130;11.630;2023-06-10T08:57:32;8.80;;;3.97;;
21122;SDS011;10719;48.130;11.630;2023-06-10T08:59:58;9.65;;;4.07;;
21122;SDS011;10719;48.130;11.630;2023-06-10T09:02:24;10.90;;;4.28;;
21122;SDS011;10719;48.130;11.630;2023-06-10T09:04:50;9.85;;;4.00;;
21122;SDS011;10719;48.130;11.630;2023-06-10T09:07:16;8.70;;;3.20;;
21122;SDS011;10719;48.130;11.630;2023-06-10T09:09:43;8.05;;;3.22;;
21122;SDS011;10719;48.130;11.630;2023-06-10T09:12:09;10.07;;;4.03;;
21122;SDS011;10719;48.130;11.630;2023-06-10T09:14:36;9.10;;;3.80;;
21122;SDS011;10719;48.130;11.630;2023-06-10T09:17:02;9.00;;;3.53;;
21122;SDS011;10719;48.130;11.630;2023-06-10T09:19:29;6.40;;;3.10;;
21122;SDS011;10719;48.130;11.630;2023-06-10T09:21:54;10.98;;;3.78;;
21122;SDS011;10719;48.130;11.630;2023-06-10T09:24:23;7.82;;;3.45;;
21122;SDS011;10719;48.130;11.630;2023-06-10T09:26:49;9.23;;;3.00;;
21122;SDS011;10719;48.130;11.630;2023-06-10T09:29:16;9.45;;;3.50;;
21122;SDS011;10719;48.130;11.630;2023-06-10T09:31:42;8.02;;;3.47;;
21122;SDS011;10719;48.130;11.630;2023-06-10T09:34:10;9.35;;;3.78;;
21122;SDS011;10719;48.130;11.630;2023-06-10T09:36:37;5.60;;;2.83;;
21122;SDS011;10719;48.130;11.630;2023-06-10T09:39:03;10.15;;;4.40;;
21122;SDS011;10719;48.130;11.630;2023-06-10T09:41:35;8.63;;;3.20;;
21122;SDS011;10719;48.130;11.630;2023-06-10T09:44:18;7.68;;;3.33;;
21122;SDS011;10719;48.130;11.630;2023-06-10T09:46:45;9.55;;;3.72;;
21122;SDS011;10719;48.130;11.630;2023-06-10T09:49:12;5.07;;;2.88;;
21122;SDS011;10719;48.130;11.630;2023-06-10T09:51:47;10.73;;;3.58;;
21122;SDS011;10719;48.130;11.630;2023-06-10T09:54:14;8.15;;;3.40;;
21122;SDS011;10719;48.130;11.630;2023-06-10T09:56:40;8.15;;;2.75;;
21122;SDS011;10719;48.130;11.630;2023-06-10T09:59:07;9.75;;;3.00;;
21122;SDS011;10719;48.130;11.630;2023-06-10T10:01:34;4.88;;;2.42;;
21122;SDS011;10719;48.130;11.630;2023-06-10T10:04:00;6.93;;;3.10;;
21122;SDS011;10719;48.130;11.630;2023-06-10T10:06:26;7.78;;;2.80;;
21122;SDS011;10719;48.130;11.630;2023-06-10T10:08:54;5.95;;;2.78;;
21122;SDS011;10719;48.130;11.630;2023-06-10T10:11:20;7.15;;;2.80;;
21122;SDS011;10719;48.130;11.630;2023-06-10T10:13:51;7.18;;;3.33;;
21122;SDS011;10719;48.130;11.630;2023-06-10T10:16:29;7.18;;;2.80;;
21122;SDS011;10719;48.130;11.630;2023-06-10T10:19:01;8.20;;;2.63;;
21122;SDS011;10719;48.130;11.630;2023-06-10T10:21:34;5.68;;;2.67;;
21122;SDS011;10719;48.130;11.630;2023-06-10T10:24:18;7.18;;;2.78;;
21122;SDS011;10719;48.130;11.630;2023-06-10T10:26:46;7.15;;;2.80;;
21122;SDS011;10719;48.130;11.630;2023-06-10T10:31:50;6.75;;;2.88;;
21122;SDS011;10719;48.130;11.630;2023-06-10T10:34:21;5.97;;;2.83;;
21122;SDS011;10719;48.130;11.630;2023-06-10T10:36:53;5.15;;;2.53;;
21122;SDS011;10719;48.130;11.630;2023-06-10T10:39:19;6.43;;;2.83;;
21122;SDS011;10719;48.130;11.630;2023-06-10T10:41:46;6.35;;;2.55;;
21122;SDS011;10719;48.130;11.630;2023-06-10T10:44:12;5.35;;;2.50;;
21122;SDS011;10719;48.130;11.630;2023-06-10T10:46:41;6.60;;;2.38;;
21122;SDS011;10719;48.130;11.630;2023-06-10T10:49:08;5.90;;;2.65;;
21122;SDS011;10719;48.130;11.630;2023-06-10T10:51:35;4.85;;;2.47;;
21122;SDS011;10719;48.130;11.630;2023-06-10T10:54:14;10.45;;;2.72;;
21122;SDS011;10719;48.130;11.630;2023-06-10T10:56:39;5.57;;;2.47;;
21122;SDS011;10719;48.130;11.630;2023-06-10T10:59:25;6.13;;;2.33;;
21122;SDS011;10719;48.130;11.630;2023-06-10T11:02:07;7.10;;;2.50;;
21122;SDS011;10719;48.130;11.630;2023-06-10T11:04:33;5.80;;;2.45;;
21122;SDS011;10719;48.130;11.630;2023-06-10T11:07:05;6.82;;;2.58;;
21122;SDS011;10719;48.130;11.630;2023-06-10T11:09:31;4.47;;;2.20;;
21122;SDS011;10719;48.130;11.630;2023-06-10T11:11:58;13.07;;;2.90;;
21122;SDS011;10719;48.130;11.630;2023-06-10T11:14:27;5.00;;;2.35;;
21122;SDS011;10719;48.130;11.630;2023-06-10T11:16:58;6.22;;;2.20;;
21122;SDS011;10719;48.130;11.630;2023-06-10T11:19:33;6.25;;;2.50;;
21122;SDS011;10719;48.130;11.630;2023-06-10T11:22:01;7.32;;;2.13;;
21122;SDS011;10719;48.130;11.630;2023-06-10T11:24:30;5.68;;;2.20;;
21122;SDS011;10719;48.130;11.630;2023-06-10T11:27:15;5.82;;;2.42;;
21122;SDS011;10719;48.130;11.630;2023-06-10T11:29:54;4.88;;;2.22;;
21122;SDS011;10719;48.130;11.630;2023-06-10T11:32:20;5.10;;;2.03;;
21122;SDS011;10719;48.130;11.630;2023-06-10T11:34:51;5.07;;;2.08;;
21122;SDS011;10719;48.130;11.630;2023-06-10T11:37:18;3.40;;;1.65;;
21122;SDS011;10719;48.130;11.630;2023-06-10T11:39:43;5.78;;;2.03;;
21122;SDS011;10719;48.130;11.630;2023-06-10T11:42:10;5.32;;;2.35;;
21122;SDS011;10719;48.130;11.630;2023-06-10T11:44:36;7.15;;;2.05;;
21122;SDS011;10719;48.130;11.630;2023-06-10T11:47:02;3.47;;;2.17;;
21122;SDS011;10719;48.130;11.630;2023-06-10T11:49:28;5.57;;;2.15;;
21122;SDS011;10719;48.130;11.630;2023-06-10T11:51:54;5.63;;;1.85;;
21122;SDS011;10719;48.130;11.630;2023-06-10T11:54:20;4.25;;;2.00;;
21122;SDS011;10719;48.130;11.630;2023-06-10T11:56:47;4.00;;;2.08;;
21122;SDS011;10719;48.130;11.630;2023-06-10T11:59:13;3.28;;;1.77;;
21122;SDS011;10719;48.130;11.630;2023-06-10T12:01:43;4.78;;;2.00;;
21122;SDS011;10719;48.130;11.630;2023-06-10T12:04:10;5.50;;;2.00;;
21122;SDS011;10719;48.130;11.630;2023-06-10T12:06:41;5.57;;;1.90;;
21122;SDS011;10719;48.130;11.630;2023-06-10T12:11:59;1.95;;;1.38;;
21122;SDS011;10719;48.130;11.630;2023-06-10T12:17:14;5.28;;;2.05;;
21122;SDS011;10719;48.130;11.630;2023-06-10T12:19:40;6.65;;;1.80;;
21122;SDS011;10719;48.130;11.630;2023-06-10T12:22:06;3.55;;;1.80;;
21122;SDS011;10719;48.130;11.630;2023-06-10T12:24:31;8.90;;;1.85;;
21122;SDS011;10719;48.130;11.630;2023-06-10T12:26:57;4.63;;;2.22;;
21122;SDS011;10719;48.130;11.630;2023-06-10T12:29:24;4.65;;;2.25;;
21122;SDS011;10719;48.130;11.630;2023-06-10T12:31:57;4.65;;;2.05;;
21122;SDS011;10719;48.130;11.630;2023-06-10T12:34:37;4.55;;;1.90;;
21122;SDS011;10719;48.130;11.630;2023-06-10T12:37:13;4.18;;;1.80;;
21122;SDS011;10719;48.130;11.630;2023-06-10T12:39:39;4.53;;;2.03;;
21122;SDS011;10719;48.130;11.630;2023-06-10T12:42:05;4.57;;;1.90;;
21122;SDS011;10719;48.130;11.630;2023-06-10T12:44:35;4.07;;;1.77;;
21122;SDS011;10719;48.130;11.630;2023-06-10T12:47:07;3.50;;;1.65;;
21122;SDS011;10719;48.130;11.630;2023-06-10T12:49:34;3.33;;;1.95;;
21122;SDS011;10719;48.130;11.630;2023-06-10T12:52:01;5.07;;;2.05;;
21122;SDS011;10719;48.130;11.630;2023-06-10T12:54:27;4.70;;;2.55;;
21122;SDS011;10719;48.130;11.630;2023-06-10T12:56:53;5.85;;;2.33;;
21122;SDS011;10719;48.130;11.630;2023-06-10T12:59:18;3.97;;;2.15;;
21122;SDS011;10719;48.130;11.630;2023-06-10T13:01:44;3.72;;;2.00;;
21122;SDS011;10719;48.130;11.630;2023-06-10T13:04:16;4.50;;;2.30;;
21122;SDS011;10719;48.130;11.630;2023-06-10T13:06:42;5.70;;;2.63;;
21122;SDS011;10719;48.130;11.630;2023-06-10T13:09:07;4.80;;;2.35;;
21122;SDS011;10719;48.130;11.630;2023-06-10T13:11:33;9.35;;;2.60;;
21122;SDS011;10719;48.130;11.630;2023-06-10T13:14:00;7.35;;;2.90;;
21122;SDS011;10719;48.130;11.630;2023-06-10T13:16:25;7.15;;;2.53;;
21122;SDS011;10719;48.130;11.630;2023-06-10T13:18:53;4.72;;;2.10;;
21122;SDS011;10719;48.130;11.630;2023-06-10T13:21:18;8.38;;;2.75;;
21122;SDS011;10719;48.130;11.630;2023-06-10T13:23:45;4.53;;;2.22;;
21122;SDS011;10719;48.130;11.630;2023-06-10T13:26:12;4.40;;;2.20;;
21122;SDS011;10719;48.130;11.630;2023-06-10T13:28:39;6.30;;;2.72;;
21122;SDS011;10719;48.130;11.630;2023-06-10T13:31:04;5.65;;;2.60;;
21122;SDS011;10719;48.130;11.630;2023-06-10T13:33:30;5.43;;;2.40;;
21122;SDS011;10719;48.130;11.630;2023-06-10T13:35:55;5.45;;;2.33;;
21122;SDS011;10719;48.130;11.630;2023-06-10T13:38:21;4.45;;;2.30;;
21122;SDS011;10719;48.130;11.630;2023-06-10T13:40:46;4.50;;;2.30;;
21122;SDS011;10719;48.130;11.630;2023-06-10T13:43:12;5.47;;;1.90;;
21122;SDS011;10719;48.130;11.630;2023-06-10T13:45:38;3.55;;;2.00;;
21122;SDS011;10719;48.130;11.630;2023-06-10T13:48:04;4.85;;;2.28;;
21122;SDS011;10719;48.130;11.630;2023-06-10T13:50:30;4.43;;;2.20;;
21122;SDS011;10719;48.130;11.630;2023-06-10T13:52:56;3.22;;;1.65;;
21122;SDS011;10719;48.130;11.630;2023-06-10T13:55:22;4.65;;;1.98;;
21122;SDS011;10719;48.130;11.630;2023-06-10T13:57:50;4.05;;;1.90;;
21122;SDS011;10719;48.130;11.630;2023-06-10T14:00:16;4.13;;;1.73;;
21122;SDS011;10719;48.130;11.630;2023-06-10T14:02:42;4.28;;;1.77;;
21122;SDS011;10719;48.130;11.630;2023-06-10T14:05:08;4.18;;;1.95;;
21122;SDS011;10719;48.130;11.630;2023-06-10T14:07:34;4.55;;;1.90;;
21122;SDS011;10719;48.130;11.630;2023-06-10T14:10:00;4.43;;;2.08;;
21122;SDS011;10719;48.130;11.630;2023-06-10T14:12:26;3.38;;;1.77;;
21122;SDS011;10719;48.130;11.630;2023-06-10T14:14:51;4.00;;;1.85;;
21122;SDS011;10719;48.130;11.630;2023-06-10T14:17:17;5.82;;;2.22;;
21122;SDS011;10719;48.130;11.630;2023-06-10T14:19:42;6.85;;;2.17;;
21122;SDS011;10719;48.130;11.630;2023-06-10T14:22:08;3.53;;;2.05;;
21122;SDS011;10719;48.130;11.630;2023-06-10T14:24:34;2.70;;;1.80;;
21122;SDS011;10719;48.130;11.630;2023-06-10T14:27:01;6.43;;;2.50;;
21122;SDS011;10719;48.130;11.630;2023-06-10T14:29:26;3.25;;;2.00;;
21122;SDS011;10719;48.130;11.630;2023-06-10T14:31:54;3.72;;;1.83;;
21122;SDS011;10719;48.130;11.630;2023-06-10T14:34:20;5.03;;;1.95;;
21122;SDS011;10719;48.130;11.630;2023-06-10T14:36:45;4.68;;;2.10;;
21122;SDS011;10719;48.130;11.630;2023-06-10T14:39:11;4.30;;;2.00;;
21122;SDS011;10719;48.130;11.630;2023-06-10T14:41:36;3.75;;;2.00;;